CheckWX is a tool to help pilots better visualize weather data.  It is not intended as a substitute for an official pre-flight weather briefing.

15:14:25 UTC

KKLS METAR
Southwest Washington Regional Airport
Kelso, Washington, USA
Current

18 mins ago

KKLS 261456Z AUTO VRB05KT 10SM OVC012 12/10 A2987 RMK AO2 SLP118 T01220100 51009
Observed
May-26 @ 14:56 UTC
Wind
  • Variable at 5 KTS
Visibility
10 SM
Flight Rules
MVFR
Cloud Levels
  • Overcast at 1,200' AGL
Temperature
12°C / 54°F
Dewpoint
10°C / 50°F
Humidity
88%
Altimeter
29.87" Hg
Pressure
1011.52 hPa
Previous

1 hour ago

KKLS 261356Z AUTO 30005KT 10SM OVC012 12/10 A2986 RMK AO2 SLP116 T01170100
Observed
May-26 @ 13:56 UTC
Wind
  • 300° at 5 KTS
Visibility
10 SM
Flight Rules
MVFR
Cloud Levels
  • Overcast at 1,200' AGL
Temperature
12°C / 54°F
Dewpoint
10°C / 50°F
Humidity
88%
Altimeter
29.86" Hg
Pressure
1011.22 hPa
Previous

2 hours ago

KKLS 261256Z AUTO 00000KT 10SM OVC012 11/09 A2985 RMK AO2 SLP114 T01060094
Observed
May-26 @ 12:56 UTC
Visibility
10 SM
Flight Rules
MVFR
Cloud Levels
  • Overcast at 1,200' AGL
Temperature
11°C / 52°F
Dewpoint
C / 48°F
Humidity
88%
Altimeter
29.85" Hg
Pressure
1010.82 hPa